createdAt,value
2019-03-04T00:01:13.010Z,85.71
2019-03-04T00:04:21.506Z,85.76
2019-03-04T00:07:40.419Z,84.80
2019-03-04T00:10:49.286Z,84.55
2019-03-04T00:13:57.798Z,84.23
2019-03-04T00:17:06.672Z,84.10
2019-03-04T00:20:15.184Z,83.63
2019-03-04T00:23:24.116Z,83.76
2019-03-04T00:26:32.716Z,83.21
2019-03-04T00:29:41.470Z,83.34
2019-03-04T00:32:49.972Z,83.40
2019-03-04T00:35:59.142Z,82.87
2019-03-04T00:39:11.791Z,83.24
2019-03-04T00:42:20.277Z,82.98
2019-03-04T00:45:29.514Z,82.86
2019-03-04T00:48:38.115Z,82.61
2019-03-04T00:51:46.680Z,82.58
2019-03-04T00:54:55.188Z,82.76
2019-03-04T00:58:03.886Z,82.14
2019-03-04T01:01:12.490Z,81.77
2019-03-04T01:04:21.130Z,81.84
2019-03-04T01:07:29.744Z,81.24
2019-03-04T01:10:48.678Z,81.63
2019-03-04T01:13:57.163Z,81.33
2019-03-04T01:17:05.671Z,81.39
2019-03-04T01:20:16.133Z,81.28
2019-03-04T01:23:24.602Z,81.24
2019-03-04T01:26:38.170Z,80.44
2019-03-04T01:29:46.732Z,79.97
2019-03-04T01:33:05.559Z,79.80
2019-03-04T01:36:14.081Z,80.49
2019-03-04T01:39:22.696Z,82.19
2019-03-04T01:42:31.280Z,82.36
2019-03-04T01:45:39.651Z,82.48
2019-03-04T01:48:58.591Z,81.81
2019-03-04T01:52:07.292Z,81.61
2019-03-04T01:55:16.381Z,80.43
2019-03-04T01:58:24.860Z,80.30
2019-03-04T02:01:33.510Z,80.30
2019-03-04T02:04:42.218Z,79.61
2019-03-04T02:07:51.201Z,79.18
2019-03-04T02:10:59.719Z,79.96
2019-03-04T02:14:08.201Z,81.73
2019-03-04T02:17:16.768Z,82.73
2019-03-04T02:20:35.515Z,82.53
2019-03-04T02:23:44.536Z,82.49
2019-03-04T02:26:54.122Z,82.68
2019-03-04T02:30:02.636Z,81.71
2019-03-04T02:33:11.323Z,81.47
2019-03-04T02:36:20.254Z,82.01
2019-03-04T02:39:28.868Z,81.78
2019-03-04T02:42:47.705Z,81.96
2019-03-04T02:45:56.540Z,81.43
2019-03-04T02:49:05.195Z,81.05
2019-03-04T02:52:13.750Z,80.04
2019-03-04T02:55:22.231Z,80.01
2019-03-04T02:58:30.772Z,80.11
2019-03-04T03:01:52.423Z,79.15
2019-03-04T03:05:13.295Z,78.89
2019-03-04T03:08:32.415Z,78.71
2019-03-04T03:11:41.048Z,77.67
2019-03-04T03:14:49.710Z,77.81
2019-03-04T03:17:58.808Z,77.59
2019-03-04T03:21:07.446Z,77.43
2019-03-04T03:24:16.115Z,77.37
2019-03-04T03:27:24.719Z,76.10
2019-03-04T03:30:33.274Z,75.64
2019-03-04T03:33:41.856Z,76.18
2019-03-04T03:36:50.357Z,76.13
2019-03-04T03:40:11.940Z,75.47
2019-03-04T03:43:20.479Z,75.17
2019-03-04T03:46:28.987Z,75.08
2019-03-04T03:49:48.098Z,74.73
2019-03-04T03:52:56.644Z,74.75
2019-03-04T03:56:05.202Z,74.52
2019-03-04T03:59:13.877Z,74.32
2019-03-04T04:02:22.385Z,74.78
2019-03-04T04:05:31.014Z,74.84
2019-03-04T04:08:39.520Z,74.48
2019-03-04T04:11:58.426Z,74.40
2019-03-04T04:15:07.062Z,74.29
2019-03-04T04:18:15.673Z,74.42
2019-03-04T04:21:24.290Z,73.03
2019-03-04T04:24:32.823Z,72.90
2019-03-04T04:27:41.428Z,73.17
2019-03-04T04:31:00.307Z,72.84
2019-03-04T04:34:09.016Z,72.86
2019-03-04T04:37:17.766Z,73.09
2019-03-04T04:40:26.276Z,72.86
2019-03-04T04:43:34.793Z,73.07
2019-03-04T04:46:55.730Z,73.11
2019-03-04T04:50:04.310Z,72.53
2019-03-04T04:53:12.775Z,72.90
2019-03-04T04:56:21.481Z,73.37
2019-03-04T04:59:30.083Z,73.10
2019-03-04T05:02:38.226Z,72.33
2019-03-04T05:05:57.228Z,72.73
2019-03-04T05:09:09.575Z,72.04
2019-03-04T05:12:18.739Z,72.05
2019-03-04T05:15:27.628Z,72.21
2019-03-04T05:18:36.256Z,71.53
2019-03-04T05:21:54.927Z,71.71
2019-03-04T05:25:03.411Z,71.33
2019-03-04T05:28:11.929Z,71.28
2019-03-04T05:31:20.406Z,71.75
2019-03-04T05:34:39.189Z,71.20
2019-03-04T05:37:47.789Z,70.93
2019-03-04T05:40:56.275Z,71.60
2019-03-04T05:44:04.801Z,71.21
2019-03-04T05:47:13.319Z,71.11
2019-03-04T05:50:32.029Z,70.86
2019-03-04T05:53:40.641Z,71.08
2019-03-04T05:56:49.125Z,70.91
2019-03-04T05:59:57.648Z,70.15
2019-03-04T06:03:06.329Z,69.77
2019-03-04T06:06:15.085Z,69.44
2019-03-04T06:09:23.777Z,69.70
2019-03-04T06:12:42.629Z,69.33
2019-03-04T06:15:51.273Z,69.71
2019-03-04T06:19:00.022Z,69.25
2019-03-04T06:22:08.628Z,69.09
2019-03-04T06:25:23.227Z,69.08
2019-03-04T06:28:42.042Z,68.66
2019-03-04T06:31:50.705Z,68.49
2019-03-04T06:34:59.455Z,68.37
2019-03-04T06:38:08.159Z,69.00
2019-03-04T06:41:16.754Z,68.71
2019-03-04T06:44:25.337Z,68.37
2019-03-04T06:47:33.949Z,68.29
2019-03-04T06:50:56.001Z,68.34
2019-03-04T06:54:48.550Z,68.37
2019-03-04T06:57:57.156Z,68.95
2019-03-04T07:01:18.310Z,70.12
2019-03-04T07:05:08.643Z,70.35
2019-03-04T07:09:17.712Z,70.57
2019-03-04T07:12:36.534Z,71.02
2019-03-04T07:15:45.039Z,71.61
2019-03-04T07:18:53.616Z,71.59
2019-03-04T07:22:02.234Z,72.09
2019-03-04T07:25:10.792Z,71.99
2019-03-04T07:28:29.826Z,71.80
2019-03-04T07:31:38.324Z,72.61
2019-03-04T07:34:46.829Z,72.69
2019-03-04T07:38:28.003Z,72.50
2019-03-04T07:41:39.747Z,72.43
2019-03-04T07:44:48.409Z,72.50
2019-03-04T07:47:57.105Z,71.96
2019-03-04T07:51:23.724Z,71.62
2019-03-04T07:54:32.365Z,71.95
2019-03-04T07:57:40.998Z,70.96
2019-03-04T08:00:49.540Z,70.95
2019-03-04T08:03:58.140Z,70.71
2019-03-04T08:07:48.126Z,69.97
2019-03-04T08:11:54.103Z,69.92
2019-03-04T08:15:13.225Z,68.52
2019-03-04T08:18:21.820Z,68.68
2019-03-04T08:21:30.434Z,68.22
2019-03-04T08:24:39.063Z,68.03
2019-03-04T08:27:47.822Z,67.84
2019-03-04T08:30:56.459Z,67.57
2019-03-04T08:34:05.102Z,67.40
2019-03-04T08:37:14.016Z,67.31
2019-03-04T08:40:22.795Z,67.25
2019-03-04T08:43:31.434Z,66.37
2019-03-04T08:46:40.102Z,66.54
2019-03-04T08:49:48.714Z,66.33
2019-03-04T08:53:07.761Z,67.41
2019-03-04T08:56:16.444Z,75.20
2019-03-04T08:59:24.985Z,77.36
2019-03-04T09:02:33.657Z,76.70
2019-03-04T09:05:42.335Z,80.50
2019-03-04T09:08:51.004Z,78.31
2019-03-04T09:11:59.541Z,78.68
2019-03-04T09:15:09.065Z,82.10
2019-03-04T09:18:17.658Z,84.37
2019-03-04T09:21:27.346Z,83.50
2019-03-04T09:24:46.343Z,82.80
2019-03-04T09:27:54.986Z,85.75
2019-03-04T09:31:03.589Z,85.40
2019-03-04T09:34:12.133Z,85.46
2019-03-04T09:37:20.816Z,84.31
2019-03-04T09:40:31.208Z,83.83
2019-03-04T09:43:40.960Z,84.41
2019-03-04T09:47:00.089Z,82.49
2019-03-04T09:50:12.085Z,81.88
2019-03-04T09:53:20.592Z,81.83
2019-03-04T09:56:29.207Z,80.79
2019-03-04T09:59:37.930Z,79.69
2019-03-04T10:02:49.277Z,80.48
2019-03-04T10:06:33.850Z,80.66
2019-03-04T10:10:18.114Z,77.72
2019-03-04T10:14:10.487Z,73.36
2019-03-04T10:18:02.313Z,69.56
2019-03-04T10:21:56.665Z,71.03
2019-03-04T10:26:03.766Z,70.16
2019-03-04T10:30:10.461Z,69.45
2019-03-04T10:34:08.111Z,68.98
2019-03-04T10:37:57.289Z,69.63
2019-03-04T10:42:06.597Z,69.88
2019-03-04T10:45:33.548Z,71.34
2019-03-04T10:48:42.217Z,72.38
2019-03-04T10:51:50.782Z,71.01
2019-03-04T10:54:59.438Z,70.31
2019-03-04T10:58:09.092Z,70.92
2019-03-04T11:01:30.716Z,69.73
2019-03-04T11:04:39.743Z,71.11
2019-03-04T11:07:47.001Z,69.68
2019-03-04T11:10:55.691Z,72.00
2019-03-04T11:14:04.519Z,71.00
2019-03-04T11:17:13.257Z,70.02
2019-03-04T11:20:22.943Z,71.11
2019-03-04T11:23:31.569Z,68.99
2019-03-04T11:26:42.430Z,70.11
2019-03-04T11:29:51.093Z,65.61
2019-03-04T11:32:59.699Z,64.37
2019-03-04T11:36:06.909Z,62.97
2019-03-04T11:40:05.450Z,62.46
2019-03-04T11:43:14.047Z,62.09
2019-03-04T11:46:24.753Z,62.74
2019-03-04T11:49:33.398Z,66.19
2019-03-04T11:52:42.939Z,66.75
2019-03-04T11:56:01.978Z,68.64
2019-03-04T11:59:10.645Z,81.27
2019-03-04T12:02:23.645Z,82.97
2019-03-04T12:05:32.297Z,83.60
2019-03-04T12:08:41.055Z,85.27
2019-03-04T12:11:50.095Z,86.46
2019-03-04T12:14:58.645Z,85.54
2019-03-04T12:18:07.396Z,85.61
2019-03-04T12:21:16.091Z,84.67
2019-03-04T12:24:24.730Z,84.52
2019-03-04T12:27:43.903Z,84.41
2019-03-04T12:30:52.442Z,85.10
2019-03-04T12:34:02.165Z,83.08
2019-03-04T12:37:11.011Z,82.77
2019-03-04T12:40:20.790Z,82.96
2019-03-04T12:43:29.280Z,82.48
2019-03-04T12:46:37.776Z,82.08
2019-03-04T12:49:46.478Z,81.65
2019-03-04T12:52:54.966Z,82.23
2019-03-04T12:56:03.860Z,80.76
2019-03-04T12:59:12.462Z,79.26
2019-03-04T13:02:21.017Z,76.16
2019-03-04T13:05:29.692Z,72.67
2019-03-04T13:08:49.662Z,68.87
2019-03-04T13:11:58.271Z,65.67
2019-03-04T13:15:06.987Z,61.76
2019-03-04T13:18:15.795Z,58.25
2019-03-04T13:21:24.790Z,56.77
2019-03-04T13:24:33.290Z,60.58
2019-03-04T13:27:41.954Z,59.77
2019-03-04T13:31:00.753Z,59.33
2019-03-04T13:34:09.398Z,56.21
2019-03-04T13:37:19.538Z,53.55
2019-03-04T13:40:28.265Z,55.34
2019-03-04T13:43:36.881Z,57.07
2019-03-04T13:46:45.505Z,58.97
2019-03-04T13:49:54.157Z,60.38
2019-03-04T13:53:13.108Z,63.57
2019-03-04T13:56:21.861Z,62.64
2019-03-04T13:59:30.382Z,63.33
2019-03-04T14:02:38.899Z,63.20
2019-03-04T14:05:47.382Z,62.97
2019-03-04T14:08:55.908Z,62.40
2019-03-04T14:12:17.958Z,57.90
2019-03-04T14:15:39.249Z,60.50
2019-03-04T14:18:47.885Z,59.94
2019-03-04T14:21:56.506Z,59.22
2019-03-04T14:25:15.461Z,61.25
2019-03-04T14:28:24.058Z,61.29
2019-03-04T14:31:32.663Z,64.31
2019-03-04T14:34:41.334Z,67.83
2019-03-04T14:37:50.009Z,72.22
2019-03-04T14:40:58.644Z,74.89
2019-03-04T14:44:07.259Z,75.25
2019-03-04T14:47:15.786Z,74.24
2019-03-04T14:50:34.768Z,73.41
2019-03-04T14:53:43.344Z,73.81
2019-03-04T14:56:51.919Z,73.08
2019-03-04T15:00:00.506Z,72.87
2019-03-04T15:03:18.997Z,71.01
2019-03-04T15:06:19.552Z,72.17
2019-03-04T15:09:28.296Z,70.93
2019-03-04T15:12:36.873Z,71.68
2019-03-04T15:16:01.678Z,70.82
2019-03-04T15:19:06.097Z,69.93
2019-03-04T15:22:14.842Z,69.83
2019-03-04T15:25:27.512Z,69.71
2019-03-04T15:28:46.308Z,70.21
2019-03-04T15:31:54.889Z,72.30
2019-03-04T15:35:03.492Z,71.90
2019-03-04T15:38:12.124Z,73.52
2019-03-04T15:41:23.768Z,72.92
2019-03-04T15:44:32.365Z,73.25
2019-03-04T15:47:51.311Z,74.15
2019-03-04T15:50:59.911Z,74.74
2019-03-04T15:54:08.506Z,75.66
2019-03-04T15:57:17.209Z,77.67
2019-03-04T16:00:25.916Z,79.12
2019-03-04T16:03:36.636Z,78.59
2019-03-04T16:06:44.858Z,80.45
2019-03-04T16:09:53.888Z,80.95
2019-03-04T16:13:02.881Z,82.78
2019-03-04T16:16:11.475Z,83.17
2019-03-04T16:19:20.151Z,83.32
2019-03-04T16:22:27.350Z,83.67
2019-03-04T16:25:37.164Z,84.12
2019-03-04T16:28:47.271Z,84.44
2019-03-04T16:31:55.871Z,84.63
2019-03-04T16:35:04.783Z,84.77
2019-03-04T16:38:13.276Z,85.76
2019-03-04T16:41:21.920Z,86.46
2019-03-04T16:44:30.512Z,87.33
2019-03-04T16:47:40.324Z,87.71
2019-03-04T16:50:59.455Z,88.10
2019-03-04T16:54:08.081Z,88.29
2019-03-04T16:57:35.936Z,88.65
2019-03-04T17:00:48.088Z,88.25
2019-03-04T17:03:56.366Z,88.42
2019-03-04T17:07:05.176Z,88.52
2019-03-04T17:10:15.799Z,88.25
2019-03-04T17:13:24.289Z,88.08
2019-03-04T17:16:32.998Z,87.63
2019-03-04T17:19:41.769Z,88.24
2019-03-04T17:22:50.650Z,87.55
2019-03-04T17:25:59.284Z,88.52
2019-03-04T17:29:07.887Z,88.27
2019-03-04T17:32:26.772Z,87.67
2019-03-04T17:35:35.427Z,87.63
2019-03-04T17:38:44.151Z,87.20
2019-03-04T17:41:52.816Z,86.47
2019-03-04T17:45:01.464Z,87.13
2019-03-04T17:48:10.400Z,85.86
2019-03-04T17:51:20.281Z,86.19
2019-03-04T17:54:28.912Z,86.51
2019-03-04T17:57:47.717Z,86.69
2019-03-04T18:00:56.710Z,86.46
2019-03-04T18:04:05.347Z,86.42
2019-03-04T18:07:14.035Z,85.83
2019-03-04T18:10:22.739Z,85.19
2019-03-04T18:13:31.718Z,85.17
2019-03-04T18:16:40.258Z,84.75
2019-03-04T18:19:48.935Z,84.61
2019-03-04T18:22:57.464Z,85.56
2019-03-04T18:26:18.461Z,84.57
2019-03-04T18:30:48.920Z,85.17
2019-03-04T18:35:06.585Z,85.04
2019-03-04T18:38:58.572Z,84.57
2019-03-04T18:43:11.292Z,85.41
2019-03-04T18:47:02.245Z,86.13
2019-03-04T18:50:10.811Z,85.19
2019-03-04T18:53:19.468Z,85.28
2019-03-04T18:56:29.925Z,85.77
2019-03-04T18:59:38.559Z,85.03
2019-03-04T19:02:48.669Z,85.41
2019-03-04T19:06:07.840Z,85.30
2019-03-04T19:09:26.807Z,85.20
2019-03-04T19:12:35.451Z,85.01
2019-03-04T19:15:43.931Z,84.02
2019-03-04T19:18:52.620Z,83.50
2019-03-04T19:22:01.203Z,81.28
2019-03-04T19:25:10.519Z,83.01
2019-03-04T19:28:19.042Z,81.74
2019-03-04T19:31:29.266Z,81.12
2019-03-04T19:34:37.873Z,80.36
2019-03-04T19:37:46.448Z,80.34
2019-03-04T19:41:05.595Z,78.48
2019-03-04T19:44:14.127Z,76.27
2019-03-04T19:47:23.809Z,75.92
2019-03-04T19:50:33.125Z,74.76
2019-03-04T19:53:41.809Z,73.30
2019-03-04T19:56:50.573Z,72.07
2019-03-04T19:59:59.225Z,70.78
2019-03-04T20:03:08.005Z,70.75
2019-03-04T20:06:16.511Z,70.67
2019-03-04T20:09:25.728Z,70.17
2019-03-04T20:12:34.318Z,69.86
2019-03-04T20:15:42.988Z,68.54
2019-03-04T20:18:51.638Z,68.63
2019-03-04T20:22:10.371Z,68.45
2019-03-04T20:25:19.114Z,68.32
2019-03-04T20:28:27.820Z,68.28
2019-03-04T20:31:36.336Z,68.83
2019-03-04T20:34:44.967Z,68.73
2019-03-04T20:37:57.577Z,69.17
2019-03-04T20:41:06.191Z,68.72
2019-03-04T20:44:17.447Z,69.10
2019-03-04T20:47:26.180Z,69.08
2019-03-04T20:50:46.519Z,69.44
2019-03-04T20:53:55.205Z,69.33
2019-03-04T20:57:05.191Z,69.15
2019-03-04T21:00:19.332Z,69.13
2019-03-04T21:03:34.995Z,69.29
2019-03-04T21:06:38.257Z,69.20
2019-03-04T21:09:46.832Z,68.62
2019-03-04T21:12:57.021Z,69.24
2019-03-04T21:16:06.258Z,68.99
2019-03-04T21:19:15.193Z,69.57
2019-03-04T21:22:23.702Z,69.46
2019-03-04T21:26:00.532Z,69.71
2019-03-04T21:30:19.667Z,69.74
2019-03-04T21:33:58.301Z,70.22
2019-03-04T21:37:30.641Z,70.06
2019-03-04T21:42:01.262Z,71.09
2019-03-04T21:45:55.098Z,70.62
2019-03-04T21:49:08.444Z,71.26
2019-03-04T21:52:53.318Z,71.21
2019-03-04T21:57:02.651Z,71.31
2019-03-04T22:00:34.896Z,70.83
2019-03-04T22:03:53.778Z,70.94
2019-03-04T22:07:03.898Z,71.00
2019-03-04T22:10:14.804Z,71.58
2019-03-04T22:13:24.706Z,71.79
2019-03-04T22:16:33.500Z,71.47
2019-03-04T22:19:42.161Z,71.30
2019-03-04T22:22:50.747Z,71.67
2019-03-04T22:26:02.261Z,71.65
2019-03-04T22:29:09.809Z,71.73
2019-03-04T22:32:18.434Z,71.78
2019-03-04T22:35:27.108Z,71.82
2019-03-04T22:38:34.427Z,72.05
2019-03-04T22:41:53.224Z,72.77
2019-03-04T22:45:01.891Z,72.31
2019-03-04T22:48:10.682Z,72.68
2019-03-04T22:51:19.678Z,73.11
2019-03-04T22:54:28.211Z,73.50
2019-03-04T22:57:36.982Z,73.45
2019-03-04T23:01:33.117Z,73.69
2019-03-04T23:05:19.171Z,73.70
2019-03-04T23:08:27.837Z,73.99
2019-03-04T23:11:38.125Z,73.65
2019-03-04T23:14:48.137Z,73.41
2019-03-04T23:18:07.245Z,73.53
2019-03-04T23:21:26.371Z,73.64
2019-03-04T23:24:34.878Z,74.10
2019-03-04T23:27:43.439Z,74.13
2019-03-04T23:30:52.090Z,74.49
2019-03-04T23:34:00.668Z,74.88
2019-03-04T23:37:09.370Z,74.67
2019-03-04T23:40:18.078Z,75.04
2019-03-04T23:43:26.313Z,75.31
2019-03-04T23:46:35.109Z,75.02
2019-03-04T23:49:43.693Z,75.09
2019-03-04T23:52:52.324Z,74.92
2019-03-04T23:56:00.939Z,75.43
2019-03-04T23:59:09.591Z,75.21
